sensor_id;sensor_type;location;lat;lon;timestamp;P1;durP1;ratioP1;P2;durP2;ratioP2
57443;SDS011;43289;52.962;6.196;2023-07-20T00:01:57;5.90;;;4.25;;
57443;SDS011;43289;52.962;6.196;2023-07-20T00:04:22;6.45;;;3.90;;
57443;SDS011;43289;52.962;6.196;2023-07-20T00:06:48;5.43;;;3.95;;
57443;SDS011;43289;52.962;6.196;2023-07-20T00:09:13;8.32;;;4.07;;
57443;SDS011;43289;52.962;6.196;2023-07-20T00:11:39;6.82;;;4.28;;
57443;SDS011;43289;52.962;6.196;2023-07-20T00:14:05;6.43;;;4.20;;
57443;SDS011;43289;52.962;6.196;2023-07-20T00:16:31;6.40;;;4.47;;
57443;SDS011;43289;52.962;6.196;2023-07-20T00:18:57;5.72;;;4.05;;
57443;SDS011;43289;52.962;6.196;2023-07-20T00:21:22;5.38;;;3.90;;
57443;SDS011;43289;52.962;6.196;2023-07-20T00:23:48;7.00;;;4.65;;
57443;SDS011;43289;52.962;6.196;2023-07-20T00:26:13;6.70;;;4.43;;
57443;SDS011;43289;52.962;6.196;2023-07-20T00:28:39;5.22;;;4.07;;
57443;SDS011;43289;52.962;6.196;2023-07-20T00:31:05;5.95;;;4.25;;
57443;SDS011;43289;52.962;6.196;2023-07-20T00:33:30;5.65;;;3.90;;
57443;SDS011;43289;52.962;6.196;2023-07-20T00:35:56;6.53;;;4.10;;
57443;SDS011;43289;52.962;6.196;2023-07-20T00:38:22;6.55;;;3.90;;
57443;SDS011;43289;52.962;6.196;2023-07-20T00:40:47;8.18;;;4.40;;
57443;SDS011;43289;52.962;6.196;2023-07-20T00:43:14;5.10;;;3.63;;
57443;SDS011;43289;52.962;6.196;2023-07-20T00:45:40;6.07;;;4.55;;
57443;SDS011;43289;52.962;6.196;2023-07-20T00:48:06;5.78;;;4.45;;
57443;SDS011;43289;52.962;6.196;2023-07-20T00:50:33;5.40;;;4.00;;
57443;SDS011;43289;52.962;6.196;2023-07-20T00:53:00;7.13;;;4.45;;
57443;SDS011;43289;52.962;6.196;2023-07-20T00:55:28;6.85;;;4.85;;
57443;SDS011;43289;52.962;6.196;2023-07-20T00:57:54;8.43;;;4.80;;
57443;SDS011;43289;52.962;6.196;2023-07-20T01:00:20;6.70;;;4.10;;
57443;SDS011;43289;52.962;6.196;2023-07-20T01:02:46;7.65;;;4.70;;
57443;SDS011;43289;52.962;6.196;2023-07-20T01:05:12;6.50;;;4.28;;
57443;SDS011;43289;52.962;6.196;2023-07-20T01:10:40;6.32;;;4.40;;
57443;SDS011;43289;52.962;6.196;2023-07-20T01:13:09;7.47;;;4.50;;
57443;SDS011;43289;52.962;6.196;2023-07-20T01:15:36;6.00;;;4.03;;
57443;SDS011;43289;52.962;6.196;2023-07-20T01:18:02;7.50;;;4.57;;
57443;SDS011;43289;52.962;6.196;2023-07-20T01:20:29;7.10;;;4.63;;
57443;SDS011;43289;52.962;6.196;2023-07-20T01:23:12;9.35;;;4.93;;
57443;SDS011;43289;52.962;6.196;2023-07-20T01:33:36;11.68;;;3.55;;
57443;SDS011;43289;52.962;6.196;2023-07-20T01:36:02;3.95;;;2.20;;
57443;SDS011;43289;52.962;6.196;2023-07-20T01:38:28;6.15;;;3.42;;
57443;SDS011;43289;52.962;6.196;2023-07-20T01:40:54;5.32;;;2.88;;
57443;SDS011;43289;52.962;6.196;2023-07-20T01:43:21;7.60;;;3.20;;
57443;SDS011;43289;52.962;6.196;2023-07-20T01:45:47;8.68;;;2.53;;
57443;SDS011;43289;52.962;6.196;2023-07-20T01:48:13;3.42;;;2.08;;
57443;SDS011;43289;52.962;6.196;2023-07-20T01:50:39;3.83;;;1.80;;
57443;SDS011;43289;52.962;6.196;2023-07-20T01:53:05;3.20;;;1.70;;
57443;SDS011;43289;52.962;6.196;2023-07-20T01:55:31;3.88;;;2.33;;
57443;SDS011;43289;52.962;6.196;2023-07-20T01:57:57;3.90;;;2.40;;
57443;SDS011;43289;52.962;6.196;2023-07-20T02:00:26;5.22;;;3.15;;
57443;SDS011;43289;52.962;6.196;2023-07-20T02:02:52;6.22;;;3.40;;
57443;SDS011;43289;52.962;6.196;2023-07-20T02:05:18;5.82;;;3.47;;
57443;SDS011;43289;52.962;6.196;2023-07-20T02:07:44;7.93;;;4.03;;
57443;SDS011;43289;52.962;6.196;2023-07-20T02:10:10;6.07;;;4.18;;
57443;SDS011;43289;52.962;6.196;2023-07-20T02:12:36;6.38;;;4.30;;
57443;SDS011;43289;52.962;6.196;2023-07-20T02:15:02;5.82;;;4.40;;
57443;SDS011;43289;52.962;6.196;2023-07-20T02:17:28;6.00;;;4.53;;
57443;SDS011;43289;52.962;6.196;2023-07-20T02:19:55;8.10;;;5.03;;
57443;SDS011;43289;52.962;6.196;2023-07-20T02:22:22;11.75;;;5.25;;
57443;SDS011;43289;52.962;6.196;2023-07-20T02:24:49;7.28;;;5.25;;
57443;SDS011;43289;52.962;6.196;2023-07-20T02:27:15;7.25;;;4.93;;
57443;SDS011;43289;52.962;6.196;2023-07-20T02:29:41;9.20;;;5.10;;
57443;SDS011;43289;52.962;6.196;2023-07-20T02:32:08;6.90;;;4.50;;
57443;SDS011;43289;52.962;6.196;2023-07-20T02:34:37;7.20;;;4.43;;
57443;SDS011;43289;52.962;6.196;2023-07-20T02:37:03;8.73;;;4.95;;
57443;SDS011;43289;52.962;6.196;2023-07-20T02:39:29;9.75;;;4.85;;
57443;SDS011;43289;52.962;6.196;2023-07-20T02:41:56;7.15;;;4.88;;
57443;SDS011;43289;52.962;6.196;2023-07-20T02:44:22;7.30;;;5.10;;
57443;SDS011;43289;52.962;6.196;2023-07-20T02:46:48;7.45;;;5.13;;
57443;SDS011;43289;52.962;6.196;2023-07-20T02:49:17;7.05;;;4.45;;
57443;SDS011;43289;52.962;6.196;2023-07-20T02:51:43;6.80;;;4.97;;
57443;SDS011;43289;52.962;6.196;2023-07-20T02:54:09;7.82;;;4.32;;
57443;SDS011;43289;52.962;6.196;2023-07-20T02:56:35;7.03;;;4.88;;
57443;SDS011;43289;52.962;6.196;2023-07-20T02:59:01;10.27;;;4.82;;
57443;SDS011;43289;52.962;6.196;2023-07-20T03:01:27;6.53;;;4.82;;
57443;SDS011;43289;52.962;6.196;2023-07-20T03:03:56;7.18;;;4.88;;
57443;SDS011;43289;52.962;6.196;2023-07-20T03:06:22;7.13;;;5.68;;
57443;SDS011;43289;52.962;6.196;2023-07-20T03:08:48;5.70;;;4.20;;
57443;SDS011;43289;52.962;6.196;2023-07-20T03:11:17;11.40;;;6.07;;
57443;SDS011;43289;52.962;6.196;2023-07-20T03:13:43;6.70;;;5.38;;
57443;SDS011;43289;52.962;6.196;2023-07-20T03:16:10;7.90;;;5.43;;
57443;SDS011;43289;52.962;6.196;2023-07-20T03:18:39;9.07;;;5.72;;
57443;SDS011;43289;52.962;6.196;2023-07-20T03:21:05;8.45;;;6.38;;
57443;SDS011;43289;52.962;6.196;2023-07-20T03:23:32;11.15;;;6.70;;
57443;SDS011;43289;52.962;6.196;2023-07-20T03:25:58;10.18;;;6.60;;
57443;SDS011;43289;52.962;6.196;2023-07-20T03:28:24;14.38;;;7.65;;
57443;SDS011;43289;52.962;6.196;2023-07-20T03:30:55;17.65;;;8.27;;
57443;SDS011;43289;52.962;6.196;2023-07-20T03:33:24;13.98;;;7.75;;
57443;SDS011;43289;52.962;6.196;2023-07-20T03:35:51;16.50;;;8.30;;
57443;SDS011;43289;52.962;6.196;2023-07-20T03:38:17;14.98;;;9.23;;
57443;SDS011;43289;52.962;6.196;2023-07-20T03:40:50;19.30;;;9.55;;
57443;SDS011;43289;52.962;6.196;2023-07-20T03:43:16;19.83;;;8.57;;
57443;SDS011;43289;52.962;6.196;2023-07-20T03:45:42;14.35;;;7.50;;
57443;SDS011;43289;52.962;6.196;2023-07-20T03:48:08;17.42;;;8.48;;
57443;SDS011;43289;52.962;6.196;2023-07-20T03:50:34;19.50;;;10.20;;
57443;SDS011;43289;52.962;6.196;2023-07-20T03:53:00;18.70;;;9.88;;
57443;SDS011;43289;52.962;6.196;2023-07-20T03:55:26;16.27;;;8.07;;
57443;SDS011;43289;52.962;6.196;2023-07-20T03:57:53;13.38;;;5.70;;
57443;SDS011;43289;52.962;6.196;2023-07-20T04:00:18;7.63;;;3.28;;
57443;SDS011;43289;52.962;6.196;2023-07-20T04:02:45;11.95;;;2.60;;
57443;SDS011;43289;52.962;6.196;2023-07-20T04:05:10;6.85;;;2.45;;
57443;SDS011;43289;52.962;6.196;2023-07-20T04:07:36;5.78;;;2.00;;
57443;SDS011;43289;52.962;6.196;2023-07-20T04:10:02;4.63;;;1.98;;
57443;SDS011;43289;52.962;6.196;2023-07-20T04:12:28;6.00;;;2.70;;
57443;SDS011;43289;52.962;6.196;2023-07-20T04:14:53;7.13;;;2.90;;
57443;SDS011;43289;52.962;6.196;2023-07-20T04:17:19;9.93;;;2.83;;
57443;SDS011;43289;52.962;6.196;2023-07-20T04:19:44;4.05;;;2.58;;
57443;SDS011;43289;52.962;6.196;2023-07-20T04:22:10;6.80;;;2.55;;
57443;SDS011;43289;52.962;6.196;2023-07-20T04:24:35;6.60;;;3.42;;
57443;SDS011;43289;52.962;6.196;2023-07-20T04:27:02;8.88;;;2.90;;
57443;SDS011;43289;52.962;6.196;2023-07-20T04:29:28;8.27;;;2.60;;
57443;SDS011;43289;52.962;6.196;2023-07-20T04:31:54;6.80;;;3.92;;
57443;SDS011;43289;52.962;6.196;2023-07-20T04:34:20;8.60;;;5.22;;
57443;SDS011;43289;52.962;6.196;2023-07-20T04:36:45;8.02;;;4.35;;
57443;SDS011;43289;52.962;6.196;2023-07-20T04:39:11;8.60;;;5.20;;
57443;SDS011;43289;52.962;6.196;2023-07-20T04:41:37;8.60;;;5.28;;
57443;SDS011;43289;52.962;6.196;2023-07-20T04:44:02;6.47;;;4.60;;
57443;SDS011;43289;52.962;6.196;2023-07-20T04:46:28;6.70;;;4.55;;
57443;SDS011;43289;52.962;6.196;2023-07-20T04:48:54;8.48;;;5.80;;
57443;SDS011;43289;52.962;6.196;2023-07-20T04:51:20;10.48;;;6.05;;
57443;SDS011;43289;52.962;6.196;2023-07-20T04:53:47;6.35;;;4.53;;
57443;SDS011;43289;52.962;6.196;2023-07-20T04:56:13;6.13;;;4.82;;
57443;SDS011;43289;52.962;6.196;2023-07-20T04:58:39;6.40;;;4.28;;
57443;SDS011;43289;52.962;6.196;2023-07-20T05:01:04;7.47;;;5.43;;
57443;SDS011;43289;52.962;6.196;2023-07-20T05:03:30;6.50;;;4.50;;
57443;SDS011;43289;52.962;6.196;2023-07-20T05:05:56;8.88;;;5.82;;
57443;SDS011;43289;52.962;6.196;2023-07-20T05:08:23;6.38;;;4.82;;
57443;SDS011;43289;52.962;6.196;2023-07-20T05:10:49;6.22;;;4.05;;
57443;SDS011;43289;52.962;6.196;2023-07-20T05:13:15;7.78;;;5.50;;
57443;SDS011;43289;52.962;6.196;2023-07-20T05:15:40;7.35;;;5.25;;
57443;SDS011;43289;52.962;6.196;2023-07-20T05:18:07;6.63;;;5.20;;
57443;SDS011;43289;52.962;6.196;2023-07-20T05:20:33;7.70;;;4.72;;
57443;SDS011;43289;52.962;6.196;2023-07-20T05:23:00;7.03;;;4.55;;
57443;SDS011;43289;52.962;6.196;2023-07-20T05:25:26;6.57;;;4.43;;
57443;SDS011;43289;52.962;6.196;2023-07-20T05:27:52;6.20;;;4.60;;
57443;SDS011;43289;52.962;6.196;2023-07-20T05:30:17;7.18;;;4.47;;
57443;SDS011;43289;52.962;6.196;2023-07-20T05:32:43;6.28;;;4.07;;
57443;SDS011;43289;52.962;6.196;2023-07-20T05:35:12;8.20;;;4.22;;
57443;SDS011;43289;52.962;6.196;2023-07-20T05:37:39;5.93;;;3.90;;
57443;SDS011;43289;52.962;6.196;2023-07-20T05:40:05;5.82;;;4.32;;
57443;SDS011;43289;52.962;6.196;2023-07-20T05:42:33;5.35;;;4.13;;
57443;SDS011;43289;52.962;6.196;2023-07-20T05:44:58;4.93;;;3.20;;
57443;SDS011;43289;52.962;6.196;2023-07-20T05:47:24;6.57;;;3.83;;
57443;SDS011;43289;52.962;6.196;2023-07-20T05:49:49;11.25;;;4.45;;
57443;SDS011;43289;52.962;6.196;2023-07-20T05:52:15;6.93;;;3.72;;
57443;SDS011;43289;52.962;6.196;2023-07-20T05:54:41;7.68;;;4.22;;
57443;SDS011;43289;52.962;6.196;2023-07-20T05:57:06;6.53;;;4.05;;
57443;SDS011;43289;52.962;6.196;2023-07-20T05:59:32;5.93;;;4.07;;
57443;SDS011;43289;52.962;6.196;2023-07-20T06:01:58;8.90;;;3.55;;
57443;SDS011;43289;52.962;6.196;2023-07-20T06:04:24;4.57;;;3.15;;
57443;SDS011;43289;52.962;6.196;2023-07-20T06:06:49;5.97;;;3.60;;
57443;SDS011;43289;52.962;6.196;2023-07-20T06:09:15;4.75;;;3.15;;
57443;SDS011;43289;52.962;6.196;2023-07-20T06:11:40;7.30;;;3.70;;
57443;SDS011;43289;52.962;6.196;2023-07-20T06:14:06;4.53;;;2.63;;
57443;SDS011;43289;52.962;6.196;2023-07-20T06:16:32;5.10;;;3.13;;
57443;SDS011;43289;52.962;6.196;2023-07-20T06:18:59;5.93;;;3.85;;
57443;SDS011;43289;52.962;6.196;2023-07-20T06:21:26;4.68;;;2.55;;
57443;SDS011;43289;52.962;6.196;2023-07-20T06:23:52;6.18;;;3.40;;
57443;SDS011;43289;52.962;6.196;2023-07-20T06:26:17;5.22;;;2.50;;
57443;SDS011;43289;52.962;6.196;2023-07-20T06:28:43;4.47;;;2.50;;
57443;SDS011;43289;52.962;6.196;2023-07-20T06:31:08;3.75;;;2.30;;
57443;SDS011;43289;52.962;6.196;2023-07-20T06:33:34;4.60;;;2.67;;
57443;SDS011;43289;52.962;6.196;2023-07-20T06:35:59;7.40;;;2.33;;
57443;SDS011;43289;52.962;6.196;2023-07-20T06:38:25;8.95;;;2.25;;
57443;SDS011;43289;52.962;6.196;2023-07-20T06:40:51;5.05;;;2.45;;
57443;SDS011;43289;52.962;6.196;2023-07-20T06:43:17;4.65;;;1.98;;
57443;SDS011;43289;52.962;6.196;2023-07-20T06:45:43;5.32;;;2.15;;
57443;SDS011;43289;52.962;6.196;2023-07-20T06:48:09;6.28;;;1.95;;
57443;SDS011;43289;52.962;6.196;2023-07-20T06:50:34;4.55;;;1.95;;
57443;SDS011;43289;52.962;6.196;2023-07-20T06:53:00;5.05;;;2.08;;
57443;SDS011;43289;52.962;6.196;2023-07-20T06:55:29;4.78;;;2.20;;
57443;SDS011;43289;52.962;6.196;2023-07-20T06:57:54;5.03;;;2.20;;
57443;SDS011;43289;52.962;6.196;2023-07-20T07:00:20;4.53;;;1.85;;
57443;SDS011;43289;52.962;6.196;2023-07-20T07:02:46;4.60;;;1.90;;
57443;SDS011;43289;52.962;6.196;2023-07-20T07:05:12;2.60;;;1.70;;
57443;SDS011;43289;52.962;6.196;2023-07-20T07:07:41;4.43;;;1.63;;
57443;SDS011;43289;52.962;6.196;2023-07-20T07:10:07;3.55;;;1.63;;
57443;SDS011;43289;52.962;6.196;2023-07-20T07:12:33;2.78;;;1.50;;
57443;SDS011;43289;52.962;6.196;2023-07-20T07:15:00;4.05;;;1.70;;
57443;SDS011;43289;52.962;6.196;2023-07-20T07:17:26;4.32;;;1.15;;
57443;SDS011;43289;52.962;6.196;2023-07-20T07:19:52;2.35;;;1.30;;
57443;SDS011;43289;52.962;6.196;2023-07-20T07:22:21;2.17;;;1.27;;
57443;SDS011;43289;52.962;6.196;2023-07-20T07:24:47;3.20;;;1.40;;
57443;SDS011;43289;52.962;6.196;2023-07-20T07:27:13;5.53;;;1.20;;
57443;SDS011;43289;52.962;6.196;2023-07-20T07:29:41;4.65;;;1.30;;
57443;SDS011;43289;52.962;6.196;2023-07-20T07:32:09;4.25;;;1.30;;
57443;SDS011;43289;52.962;6.196;2023-07-20T07:34:35;2.75;;;1.10;;
57443;SDS011;43289;52.962;6.196;2023-07-20T07:37:00;2.45;;;1.33;;
57443;SDS011;43289;52.962;6.196;2023-07-20T07:39:26;2.85;;;1.20;;
57443;SDS011;43289;52.962;6.196;2023-07-20T07:41:54;4.57;;;1.40;;
57443;SDS011;43289;52.962;6.196;2023-07-20T07:44:20;4.28;;;1.45;;
57443;SDS011;43289;52.962;6.196;2023-07-20T07:46:46;3.67;;;1.48;;
57443;SDS011;43289;52.962;6.196;2023-07-20T07:49:12;2.47;;;1.20;;
57443;SDS011;43289;52.962;6.196;2023-07-20T07:51:37;3.80;;;1.50;;
57443;SDS011;43289;52.962;6.196;2023-07-20T07:54:03;2.88;;;1.55;;
57443;SDS011;43289;52.962;6.196;2023-07-20T07:56:29;3.13;;;1.30;;
57443;SDS011;43289;52.962;6.196;2023-07-20T07:58:55;2.53;;;1.30;;
57443;SDS011;43289;52.962;6.196;2023-07-20T08:01:20;2.22;;;1.15;;
57443;SDS011;43289;52.962;6.196;2023-07-20T08:03:47;2.75;;;1.10;;
57443;SDS011;43289;52.962;6.196;2023-07-20T08:06:13;4.60;;;1.20;;
57443;SDS011;43289;52.962;6.196;2023-07-20T08:08:39;2.97;;;1.30;;
57443;SDS011;43289;52.962;6.196;2023-07-20T08:11:05;2.15;;;1.10;;
57443;SDS011;43289;52.962;6.196;2023-07-20T08:13:31;2.85;;;1.05;;
57443;SDS011;43289;52.962;6.196;2023-07-20T08:15:57;4.45;;;1.30;;
57443;SDS011;43289;52.962;6.196;2023-07-20T08:18:23;5.43;;;1.58;;
57443;SDS011;43289;52.962;6.196;2023-07-20T08:20:49;2.65;;;1.25;;
57443;SDS011;43289;52.962;6.196;2023-07-20T08:23:14;2.92;;;1.23;;
57443;SDS011;43289;52.962;6.196;2023-07-20T08:25:40;1.20;;;0.80;;
57443;SDS011;43289;52.962;6.196;2023-07-20T08:28:13;2.53;;;1.25;;
57443;SDS011;43289;52.962;6.196;2023-07-20T08:30:44;1.73;;;1.00;;
57443;SDS011;43289;52.962;6.196;2023-07-20T08:33:14;4.15;;;1.38;;
57443;SDS011;43289;52.962;6.196;2023-07-20T08:35:42;1.67;;;1.02;;
57443;SDS011;43289;52.962;6.196;2023-07-20T08:38:08;2.05;;;1.23;;
57443;SDS011;43289;52.962;6.196;2023-07-20T08:40:55;3.42;;;1.30;;
57443;SDS011;43289;52.962;6.196;2023-07-20T08:43:20;4.28;;;1.45;;
57443;SDS011;43289;52.962;6.196;2023-07-20T08:45:52;1.48;;;1.10;;
57443;SDS011;43289;52.962;6.196;2023-07-20T08:48:23;2.33;;;1.63;;
57443;SDS011;43289;52.962;6.196;2023-07-20T08:50:50;2.75;;;1.35;;
57443;SDS011;43289;52.962;6.196;2023-07-20T08:53:18;2.10;;;1.25;;
57443;SDS011;43289;52.962;6.196;2023-07-20T08:55:44;2.42;;;1.33;;
57443;SDS011;43289;52.962;6.196;2023-07-20T08:58:15;4.45;;;1.40;;
57443;SDS011;43289;52.962;6.196;2023-07-20T09:00:41;4.05;;;1.70;;
57443;SDS011;43289;52.962;6.196;2023-07-20T09:03:08;5.68;;;1.67;;
57443;SDS011;43289;52.962;6.196;2023-07-20T09:05:35;2.50;;;1.40;;
57443;SDS011;43289;52.962;6.196;2023-07-20T09:08:01;4.78;;;1.33;;
57443;SDS011;43289;52.962;6.196;2023-07-20T09:10:28;3.03;;;1.58;;
57443;SDS011;43289;52.962;6.196;2023-07-20T09:12:54;2.97;;;1.27;;
57443;SDS011;43289;52.962;6.196;2023-07-20T09:15:21;3.17;;;1.80;;
57443;SDS011;43289;52.962;6.196;2023-07-20T09:17:48;2.88;;;1.60;;
57443;SDS011;43289;52.962;6.196;2023-07-20T09:20:18;6.28;;;1.58;;
57443;SDS011;43289;52.962;6.196;2023-07-20T09:22:44;5.75;;;1.52;;
57443;SDS011;43289;52.962;6.196;2023-07-20T09:25:13;2.85;;;1.55;;
57443;SDS011;43289;52.962;6.196;2023-07-20T09:27:45;3.92;;;1.80;;
57443;SDS011;43289;52.962;6.196;2023-07-20T09:30:13;4.50;;;1.50;;
57443;SDS011;43289;52.962;6.196;2023-07-20T09:32:44;2.55;;;1.40;;
57443;SDS011;43289;52.962;6.196;2023-07-20T09:35:17;2.55;;;1.20;;
57443;SDS011;43289;52.962;6.196;2023-07-20T09:37:49;3.50;;;1.65;;
57443;SDS011;43289;52.962;6.196;2023-07-20T09:40:17;4.55;;;1.48;;
57443;SDS011;43289;52.962;6.196;2023-07-20T09:42:43;3.28;;;1.42;;
57443;SDS011;43289;52.962;6.196;2023-07-20T09:45:09;2.70;;;1.30;;
57443;SDS011;43289;52.962;6.196;2023-07-20T09:47:36;2.88;;;1.30;;
57443;SDS011;43289;52.962;6.196;2023-07-20T09:50:03;2.67;;;1.55;;
57443;SDS011;43289;52.962;6.196;2023-07-20T09:52:29;2.45;;;1.38;;
57443;SDS011;43289;52.962;6.196;2023-07-20T09:54:55;5.03;;;1.58;;
57443;SDS011;43289;52.962;6.196;2023-07-20T09:57:22;4.20;;;1.80;;
57443;SDS011;43289;52.962;6.196;2023-07-20T09:59:48;3.08;;;1.52;;
57443;SDS011;43289;52.962;6.196;2023-07-20T10:02:21;4.10;;;1.40;;
57443;SDS011;43289;52.962;6.196;2023-07-20T10:04:51;2.88;;;1.50;;
57443;SDS011;43289;52.962;6.196;2023-07-20T10:07:18;2.97;;;1.55;;
57443;SDS011;43289;52.962;6.196;2023-07-20T10:09:48;3.88;;;1.45;;
57443;SDS011;43289;52.962;6.196;2023-07-20T10:12:15;3.08;;;1.63;;
57443;SDS011;43289;52.962;6.196;2023-07-20T10:14:42;2.83;;;1.40;;
57443;SDS011;43289;52.962;6.196;2023-07-20T10:17:17;4.50;;;2.13;;
57443;SDS011;43289;52.962;6.196;2023-07-20T10:19:44;1.95;;;1.30;;
57443;SDS011;43289;52.962;6.196;2023-07-20T10:22:14;2.80;;;1.50;;
57443;SDS011;43289;52.962;6.196;2023-07-20T10:24:45;4.45;;;1.50;;
57443;SDS011;43289;52.962;6.196;2023-07-20T10:27:11;2.97;;;1.65;;
57443;SDS011;43289;52.962;6.196;2023-07-20T10:29:37;3.28;;;1.50;;
57443;SDS011;43289;52.962;6.196;2023-07-20T10:32:04;3.78;;;1.60;;
57443;SDS011;43289;52.962;6.196;2023-07-20T10:34:31;2.80;;;1.30;;
57443;SDS011;43289;52.962;6.196;2023-07-20T10:36:58;3.90;;;1.33;;
57443;SDS011;43289;52.962;6.196;2023-07-20T10:39:25;3.13;;;1.73;;
57443;SDS011;43289;52.962;6.196;2023-07-20T10:42:08;3.30;;;1.48;;
57443;SDS011;43289;52.962;6.196;2023-07-20T10:44:34;2.65;;;1.35;;
57443;SDS011;43289;52.962;6.196;2023-07-20T10:47:03;3.60;;;1.60;;
57443;SDS011;43289;52.962;6.196;2023-07-20T10:49:32;2.40;;;1.30;;
57443;SDS011;43289;52.962;6.196;2023-07-20T10:51:59;1.75;;;1.27;;
57443;SDS011;43289;52.962;6.196;2023-07-20T10:56:51;1.65;;;1.13;;
57443;SDS011;43289;52.962;6.196;2023-07-20T11:01:50;2.38;;;1.33;;
57443;SDS011;43289;52.962;6.196;2023-07-20T11:04:16;1.92;;;1.30;;
57443;SDS011;43289;52.962;6.196;2023-07-20T11:06:46;3.38;;;1.60;;
57443;SDS011;43289;52.962;6.196;2023-07-20T11:11:45;3.15;;;1.40;;
57443;SDS011;43289;52.962;6.196;2023-07-20T11:14:22;5.82;;;1.60;;
57443;SDS011;43289;52.962;6.196;2023-07-20T11:16:48;5.88;;;2.03;;
57443;SDS011;43289;52.962;6.196;2023-07-20T11:19:20;4.30;;;1.70;;
57443;SDS011;43289;52.962;6.196;2023-07-20T11:21:49;2.60;;;1.50;;
57443;SDS011;43289;52.962;6.196;2023-07-20T11:24:20;4.32;;;1.60;;
57443;SDS011;43289;52.962;6.196;2023-07-20T11:26:49;3.92;;;1.75;;
57443;SDS011;43289;52.962;6.196;2023-07-20T11:29:16;2.85;;;1.40;;
57443;SDS011;43289;52.962;6.196;2023-07-20T11:31:43;2.95;;;1.40;;
57443;SDS011;43289;52.962;6.196;2023-07-20T11:34:13;2.92;;;1.63;;
57443;SDS011;43289;52.962;6.196;2023-07-20T11:36:43;4.05;;;1.60;;
57443;SDS011;43289;52.962;6.196;2023-07-20T11:39:10;4.05;;;1.30;;
57443;SDS011;43289;52.962;6.196;2023-07-20T11:41:37;4.82;;;1.30;;
57443;SDS011;43289;52.962;6.196;2023-07-20T11:44:04;2.58;;;0.90;;
57443;SDS011;43289;52.962;6.196;2023-07-20T11:46:31;3.75;;;1.17;;
57443;SDS011;43289;52.962;6.196;2023-07-20T11:48:58;3.15;;;1.10;;
57443;SDS011;43289;52.962;6.196;2023-07-20T11:51:27;2.97;;;1.42;;
57443;SDS011;43289;52.962;6.196;2023-07-20T11:53:54;4.30;;;1.33;;
57443;SDS011;43289;52.962;6.196;2023-07-20T11:56:20;2.05;;;1.15;;
57443;SDS011;43289;52.962;6.196;2023-07-20T11:58:47;1.25;;;1.08;;
57443;SDS011;43289;52.962;6.196;2023-07-20T12:01:13;2.08;;;1.20;;
57443;SDS011;43289;52.962;6.196;2023-07-20T12:03:39;2.58;;;1.20;;
57443;SDS011;43289;52.962;6.196;2023-07-20T12:06:07;3.15;;;1.27;;
57443;SDS011;43289;52.962;6.196;2023-07-20T12:08:34;2.40;;;1.40;;
57443;SDS011;43289;52.962;6.196;2023-07-20T12:10:59;3.67;;;1.55;;
57443;SDS011;43289;52.962;6.196;2023-07-20T12:13:35;3.53;;;1.60;;
57443;SDS011;43289;52.962;6.196;2023-07-20T12:16:16;3.25;;;1.80;;
57443;SDS011;43289;52.962;6.196;2023-07-20T12:21:08;3.25;;;1.55;;
57443;SDS011;43289;52.962;6.196;2023-07-20T12:23:35;4.82;;;1.70;;
57443;SDS011;43289;52.962;6.196;2023-07-20T12:26:02;4.30;;;1.70;;
57443;SDS011;43289;52.962;6.196;2023-07-20T12:28:28;3.55;;;1.45;;
57443;SDS011;43289;52.962;6.196;2023-07-20T12:30:54;4.72;;;1.52;;
57443;SDS011;43289;52.962;6.196;2023-07-20T12:33:23;3.28;;;1.70;;
57443;SDS011;43289;52.962;6.196;2023-07-20T12:35:49;2.70;;;1.45;;
57443;SDS011;43289;52.962;6.196;2023-07-20T12:38:15;2.50;;;1.45;;
57443;SDS011;43289;52.962;6.196;2023-07-20T12:40:41;3.33;;;2.08;;
57443;SDS011;43289;52.962;6.196;2023-07-20T12:43:07;3.80;;;1.70;;
57443;SDS011;43289;52.962;6.196;2023-07-20T12:45:33;2.90;;;1.63;;
57443;SDS011;43289;52.962;6.196;2023-07-20T12:47:59;3.28;;;1.30;;
57443;SDS011;43289;52.962;6.196;2023-07-20T12:50:24;1.83;;;1.15;;
57443;SDS011;43289;52.962;6.196;2023-07-20T12:52:50;2.85;;;1.40;;
57443;SDS011;43289;52.962;6.196;2023-07-20T12:55:15;2.63;;;1.40;;
57443;SDS011;43289;52.962;6.196;2023-07-20T12:57:41;3.35;;;1.55;;
57443;SDS011;43289;52.962;6.196;2023-07-20T13:00:08;2.60;;;1.25;;
57443;SDS011;43289;52.962;6.196;2023-07-20T13:02:35;3.22;;;1.20;;
57443;SDS011;43289;52.962;6.196;2023-07-20T13:05:01;2.45;;;1.13;;
57443;SDS011;43289;52.962;6.196;2023-07-20T13:07:31;3.03;;;1.20;;
57443;SDS011;43289;52.962;6.196;2023-07-20T13:10:01;1.23;;;1.10;;
57443;SDS011;43289;52.962;6.196;2023-07-20T13:12:28;2.70;;;1.52;;
57443;SDS011;43289;52.962;6.196;2023-07-20T13:14:55;3.75;;;1.30;;
57443;SDS011;43289;52.962;6.196;2023-07-20T13:17:21;2.88;;;1.58;;
57443;SDS011;43289;52.962;6.196;2023-07-20T13:19:47;1.27;;;1.10;;
57443;SDS011;43289;52.962;6.196;2023-07-20T13:22:13;1.95;;;1.20;;
57443;SDS011;43289;52.962;6.196;2023-07-20T13:24:40;2.53;;;1.20;;
57443;SDS011;43289;52.962;6.196;2023-07-20T13:27:06;4.65;;;1.38;;
57443;SDS011;43289;52.962;6.196;2023-07-20T13:29:32;2.33;;;1.30;;
57443;SDS011;43289;52.962;6.196;2023-07-20T13:31:58;2.80;;;1.15;;
57443;SDS011;43289;52.962;6.196;2023-07-20T13:34:25;1.80;;;1.17;;
57443;SDS011;43289;52.962;6.196;2023-07-20T13:36:51;3.85;;;1.60;;
57443;SDS011;43289;52.962;6.196;2023-07-20T13:39:16;6.25;;;1.83;;
57443;SDS011;43289;52.962;6.196;2023-07-20T13:41:42;5.68;;;1.33;;
57443;SDS011;43289;52.962;6.196;2023-07-20T13:44:08;2.70;;;1.40;;
57443;SDS011;43289;52.962;6.196;2023-07-20T13:46:34;4.45;;;2.17;;
57443;SDS011;43289;52.962;6.196;2023-07-20T13:49:00;3.90;;;1.30;;
57443;SDS011;43289;52.962;6.196;2023-07-20T13:51:26;9.77;;;1.77;;
57443;SDS011;43289;52.962;6.196;2023-07-20T13:53:53;2.42;;;1.33;;
57443;SDS011;43289;52.962;6.196;2023-07-20T13:56:18;3.20;;;1.13;;
57443;SDS011;43289;52.962;6.196;2023-07-20T13:58:44;4.68;;;1.45;;
57443;SDS011;43289;52.962;6.196;2023-07-20T14:01:10;3.50;;;1.27;;
57443;SDS011;43289;52.962;6.196;2023-07-20T14:03:36;4.05;;;1.40;;
57443;SDS011;43289;52.962;6.196;2023-07-20T14:06:02;2.75;;;1.38;;
57443;SDS011;43289;52.962;6.196;2023-07-20T14:08:28;7.18;;;1.70;;
57443;SDS011;43289;52.962;6.196;2023-07-20T14:10:55;3.10;;;1.23;;
57443;SDS011;43289;52.962;6.196;2023-07-20T14:13:20;2.63;;;1.23;;
57443;SDS011;43289;52.962;6.196;2023-07-20T14:15:46;5.13;;;1.25;;
57443;SDS011;43289;52.962;6.196;2023-07-20T14:18:11;3.58;;;1.20;;
57443;SDS011;43289;52.962;6.196;2023-07-20T14:20:37;4.28;;;1.20;;
57443;SDS011;43289;52.962;6.196;2023-07-20T14:23:04;3.95;;;1.30;;
57443;SDS011;43289;52.962;6.196;2023-07-20T14:25:29;2.60;;;1.38;;
57443;SDS011;43289;52.962;6.196;2023-07-20T14:27:55;2.65;;;1.10;;
57443;SDS011;43289;52.962;6.196;2023-07-20T14:30:20;4.97;;;1.50;;
57443;SDS011;43289;52.962;6.196;2023-07-20T14:32:46;1.13;;;1.00;;
57443;SDS011;43289;52.962;6.196;2023-07-20T14:35:13;3.45;;;1.15;;
57443;SDS011;43289;52.962;6.196;2023-07-20T14:37:39;2.25;;;1.00;;
57443;SDS011;43289;52.962;6.196;2023-07-20T14:40:05;1.15;;;0.98;;
57443;SDS011;43289;52.962;6.196;2023-07-20T14:42:32;2.75;;;1.00;;
57443;SDS011;43289;52.962;6.196;2023-07-20T14:44:57;4.30;;;1.20;;
57443;SDS011;43289;52.962;6.196;2023-07-20T14:47:23;1.27;;;1.00;;
57443;SDS011;43289;52.962;6.196;2023-07-20T14:49:49;2.90;;;1.40;;
57443;SDS011;43289;52.962;6.196;2023-07-20T14:52:15;3.55;;;1.88;;
57443;SDS011;43289;52.962;6.196;2023-07-20T14:54:40;2.60;;;1.08;;
57443;SDS011;43289;52.962;6.196;2023-07-20T14:57:06;1.75;;;1.02;;
57443;SDS011;43289;52.962;6.196;2023-07-20T14:59:38;2.20;;;1.38;;
57443;SDS011;43289;52.962;6.196;2023-07-20T15:02:06;2.03;;;1.20;;
57443;SDS011;43289;52.962;6.196;2023-07-20T15:04:32;3.53;;;1.50;;
57443;SDS011;43289;52.962;6.196;2023-07-20T15:06:58;2.53;;;1.40;;